Wetterstation Vordersexau
Wetterdaten: Woche 26.03.12 - 01.04.12 (KW13)
Datum Zeit Temp. A. Feuchte A. Luftdruck Regen Wind Richtung Taupunkt Windchill Windben
26.03.2012 00:00 7,5 C 74 % 1027,4 hPa 0,0 l/m 0,0 km/h NO 3,2 C 7,5 C 0,0 km/h
26.03.2012 01:00 6,1 C 76 % 1027,6 hPa 0,0 l/m 0,0 km/h O-SO 2,2 C 6,1 C 0,0 km/h
26.03.2012 02:00 7,4 C 75 % 1027,8 hPa 0,0 l/m 0,0 km/h NO 3,3 C 7,4 C 0,0 km/h
26.03.2012 03:00 6,6 C 74 % 1027,6 hPa 0,0 l/m 0,0 km/h N-NO 2,3 C 6,6 C 0,0 km/h
26.03.2012 04:00 4,6 C 77 % 1027,8 hPa 0,0 l/m 0,0 km/h O-SO 0,9 C 4,6 C 0,0 km/h
26.03.2012 05:00 2,5 C 80 % 1027,8 hPa 0,0 l/m 0,0 km/h O-SO -0,6 C 2,5 C 0,0 km/h
26.03.2012 06:00 1,7 C 83 % 1028,1 hPa 0,0 l/m 0,0 km/h O-SO -0,9 C 1,7 C 0,0 km/h
26.03.2012 07:00 1,3 C 84 % 1028,5 hPa 0,0 l/m 0,0 km/h SW -1,1 C 1,3 C 0,0 km/h
26.03.2012 08:00 4,4 C 85 % 1028,9 hPa 0,0 l/m 0,0 km/h W 2,1 C 4,4 C 0,0 km/h
26.03.2012 09:00 12,3 C 62 % 1029,2 hPa 0,0 l/m 0,6 km/h W 5,2 C 12,3 C 0,4 km/h
26.03.2012 10:00 15,8 C 51 % 1029,1 hPa 0,0 l/m 0,0 km/h W-NW 5,7 C 15,8 C 0,0 km/h
26.03.2012 11:00 20,0 C 42 % 1029,2 hPa 0,0 l/m 3,9 km/h W 6,7 C 20,0 C 2,2 km/h
26.03.2012 12:00 23,8 C 33 % 1028,7 hPa 0,0 l/m 6,5 km/h N 6,6 C 23,8 C 3,6 km/h
26.03.2012 13:00 23,6 C 29 % 1028,3 hPa 0,0 l/m 4,5 km/h N 4,5 C 23,6 C 2,5 km/h
26.03.2012 14:00 22,9 C 28 % 1027,9 hPa 0,0 l/m 21,4 km/h N-NO 3,4 C 19,8 C 11,9 km/h
26.03.2012 15:00 25,6 C 25 % 1027,6 hPa 0,0 l/m 0,0 km/h O-NO 4,1 C 25,6 C 0,0 km/h
26.03.2012 16:00 27,2 C 22 % 1027,2 hPa 0,0 l/m 0,0 km/h NO 3,6 C 27,2 C 0,0 km/h
26.03.2012 17:00 28,1 C 22 % 1027,0 hPa 0,0 l/m 0,0 km/h O-NO 4,4 C 28,1 C 0,0 km/h
26.03.2012 18:00 25,9 C 23 % 1026,9 hPa 0,0 l/m 5,2 km/h NO 3,2 C 25,9 C 2,9 km/h
26.03.2012 19:00 18,7 C 31 % 1027,3 hPa 0,0 l/m 0,0 km/h N-NO 1,2 C 18,7 C 0,0 km/h
26.03.2012 20:00 13,5 C 40 % 1027,7 hPa 0,0 l/m 0,0 km/h NW 0,2 C 13,5 C 0,0 km/h
26.03.2012 21:00 10,7 C 49 % 1028,4 hPa 0,0 l/m 0,0 km/h O-SO 0,4 C 10,7 C 0,0 km/h
26.03.2012 22:00 9,2 C 59 % 1028,6 hPa 0,0 l/m 0,0 km/h SO 1,6 C 9,2 C 0,0 km/h
26.03.2012 23:00 8,4 C 61 % 1028,6 hPa 0,0 l/m 0,0 km/h SO 1,3 C 8,4 C 0,0 km/h
27.03.2012 00:00 7,2 C 62 % 1028,7 hPa 0,0 l/m 0,0 km/h NO 0,4 C 7,2 C 0,0 km/h
27.03.2012 01:00 5,6 C 70 % 1028,5 hPa 0,0 l/m 2,6 km/h O-NO 0,6 C 5,6 C 1,4 km/h
27.03.2012 02:00 6,6 C 69 % 1028,5 hPa 0,0 l/m 0,0 km/h NO 1,3 C 6,6 C 0,0 km/h
27.03.2012 03:00 4,3 C 72 % 1028,3 hPa 0,0 l/m 0,0 km/h NO -0,3 C 4,3 C 0,0 km/h
27.03.2012 04:00 3,8 C 77 % 1028,3 hPa 0,0 l/m 0,0 km/h SO 0,1 C 3,8 C 0,0 km/h
27.03.2012 05:00 3,3 C 79 % 1028,7 hPa 0,0 l/m 0,0 km/h N-NO 0,0 C 3,3 C 0,0 km/h
27.03.2012 06:00 3,0 C 80 % 1028,8 hPa 0,0 l/m 0,0 km/h NO -0,1 C 3,0 C 0,0 km/h
27.03.2012 07:00 2,7 C 82 % 1029,0 hPa 0,0 l/m 0,0 km/h NW -0,1 C 2,7 C 0,0 km/h
27.03.2012 08:00 4,6 C 81 % 1029,5 hPa 0,0 l/m 0,0 km/h W-NW 1,6 C 4,6 C 0,0 km/h
27.03.2012 09:00 11,3 C 65 % 1029,9 hPa 0,0 l/m 0,0 km/h W-NW 5,0 C 11,3 C 0,0 km/h
27.03.2012 10:00 14,0 C 56 % 1029,9 hPa 0,0 l/m 2,6 km/h W-NW 5,4 C 14,0 C 1,4 km/h
27.03.2012 11:00 19,1 C 45 % 1029,7 hPa 0,0 l/m 0,0 km/h SW 6,9 C 19,1 C 0,0 km/h
27.03.2012 12:00 21,1 C 42 % 1029,3 hPa 0,0 l/m 6,5 km/h N-NO 7,7 C 21,1 C 3,6 km/h
27.03.2012 13:00 23,4 C 30 % 1028,6 hPa 0,0 l/m 0,0 km/h O-NO 4,8 C 23,4 C 0,0 km/h
27.03.2012 14:00 23,2 C 29 % 1028,0 hPa 0,0 l/m 0,0 km/h O 4,2 C 23,2 C 0,0 km/h
27.03.2012 15:00 25,6 C 24 % 1027,6 hPa 0,0 l/m 0,0 km/h NO 3,5 C 25,6 C 0,0 km/h
27.03.2012 16:00 27,9 C 22 % 1027,1 hPa 0,0 l/m 0,0 km/h O-NO 4,2 C 27,9 C 0,0 km/h
27.03.2012 17:00 28,4 C 23 % 1026,9 hPa 0,0 l/m 0,0 km/h N-NO 5,3 C 28,4 C 0,0 km/h
27.03.2012 18:00 22,9 C 30 % 1026,8 hPa 0,0 l/m 5,2 km/h N-NO 4,4 C 22,9 C 2,9 km/h
27.03.2012 19:00 17,4 C 37 % 1027,1 hPa 0,0 l/m 3,9 km/h N-NO 2,6 C 17,4 C 2,2 km/h
27.03.2012 20:00 13,1 C 47 % 1027,5 hPa 0,0 l/m 0,0 km/h SW 2,0 C 13,1 C 0,0 km/h
27.03.2012 21:00 10,6 C 56 % 1027,9 hPa 0,0 l/m 7,8 km/h SO 2,2 C 9,6 C 4,3 km/h
27.03.2012 22:00 9,4 C 61 % 1027,9 hPa 0,0 l/m 0,0 km/h O-SO 2,3 C 9,4 C 0,0 km/h
27.03.2012 23:00 8,0 C 65 % 1028,1 hPa 0,0 l/m 0,0 km/h O-NO 1,8 C 8,0 C 0,0 km/h
28.03.2012 00:00 7,8 C 65 % 1028,2 hPa 0,0 l/m 0,0 km/h NO 1,6 C 7,8 C 0,0 km/h
28.03.2012 01:00 6,4 C 70 % 1027,7 hPa 0,0 l/m 0,0 km/h N 1,3 C 6,4 C 0,0 km/h
28.03.2012 02:00 5,5 C 75 % 1027,4 hPa 0,0 l/m 0,0 km/h O-NO 1,4 C 5,5 C 0,0 km/h
28.03.2012 03:00 5,4 C 74 % 1027,1 hPa 0,0 l/m 0,0 km/h N-NO 1,1 C 5,4 C 0,0 km/h
28.03.2012 04:00 5,8 C 78 % 1026,7 hPa 0,0 l/m 0,0 km/h NO 2,3 C 5,8 C 0,0 km/h
28.03.2012 05:00 4,9 C 80 % 1026,4 hPa 0,0 l/m 0,0 km/h O-SO 1,7 C 4,9 C 0,0 km/h
28.03.2012 06:00 3,8 C 81 % 1026,7 hPa 0,0 l/m 0,0 km/h SO 0,8 C 3,8 C 0,0 km/h
28.03.2012 07:00 2,1 C 83 % 1026,8 hPa 0,0 l/m 0,0 km/h SO -0,5 C 2,1 C 0,0 km/h
28.03.2012 08:00 4,8 C 84 % 1026,9 hPa 0,0 l/m 0,0 km/h W-NW 2,3 C 4,8 C 0,0 km/h
28.03.2012 09:00 12,9 C 65 % 1026,7 hPa 0,0 l/m 0,0 km/h NW 6,5 C 12,9 C 0,0 km/h
28.03.2012 10:00 15,2 C 58 % 1026,7 hPa 0,0 l/m 0,0 km/h W-SW 7,0 C 15,2 C 0,0 km/h
28.03.2012 11:00 19,6 C 49 % 1026,2 hPa 0,0 l/m 6,5 km/h W 8,6 C 19,6 C 3,6 km/h
28.03.2012 12:00 22,5 C 43 % 1025,5 hPa 0,0 l/m 7,1 km/h W-NW 9,3 C 22,3 C 4,0 km/h
28.03.2012 13:00 22,6 C 40 % 1024,8 hPa 0,0 l/m 22,7 km/h N-NW 8,3 C 19,2 C 12,6 km/h
28.03.2012 14:00 23,1 C 39 % 1023,9 hPa 0,0 l/m 4,5 km/h N-NW 8,4 C 23,1 C 2,5 km/h
28.03.2012 15:00 24,8 C 37 % 1023,3 hPa 0,0 l/m 7,1 km/h N 9,1 C 24,6 C 4,0 km/h
28.03.2012 16:00 26,3 C 32 % 1022,5 hPa 0,0 l/m 10,4 km/h N-NO 8,3 C 25,5 C 5,8 km/h
28.03.2012 17:00 25,5 C 33 % 1022,2 hPa 0,0 l/m 5,8 km/h N-NO 8,0 C 25,5 C 3,2 km/h
28.03.2012 18:00 24,5 C 34 % 1021,9 hPa 0,0 l/m 0,0 km/h NO 7,6 C 24,5 C 0,0 km/h
28.03.2012 19:00 20,5 C 38 % 1022,2 hPa 0,0 l/m 0,0 km/h N-NO 5,7 C 20,5 C 0,0 km/h
28.03.2012 20:00 14,2 C 50 % 1022,3 hPa 0,0 l/m 0,0 km/h O 3,9 C 14,2 C 0,0 km/h
28.03.2012 21:00 11,1 C 62 % 1022,9 hPa 0,0 l/m 0,0 km/h N-NO 4,1 C 11,1 C 0,0 km/h
28.03.2012 22:00 10,6 C 69 % 1022,8 hPa 0,0 l/m 0,0 km/h O-NO 5,2 C 10,6 C 0,0 km/h
28.03.2012 23:00 8,7 C 72 % 1022,8 hPa 0,0 l/m 0,0 km/h O-NO 3,9 C 8,7 C 0,0 km/h
29.03.2012 00:00 8,1 C 76 % 1022,6 hPa 0,0 l/m 0,0 km/h O-NO 4,1 C 8,1 C 0,0 km/h
29.03.2012 01:00 7,8 C 76 % 1022,5 hPa 0,0 l/m 0,0 km/h NO 3,8 C 7,8 C 0,0 km/h
29.03.2012 02:00 6,1 C 81 % 1022,2 hPa 0,0 l/m 0,0 km/h N-NO 3,1 C 6,1 C 0,0 km/h
29.03.2012 03:00 5,8 C 82 % 1021,9 hPa 0,0 l/m 0,0 km/h O-NO 3,0 C 5,8 C 0,0 km/h
29.03.2012 04:00 5,0 C 83 % 1021,4 hPa 0,0 l/m 0,0 km/h O-SO 2,4 C 5,0 C 0,0 km/h
29.03.2012 05:00 3,9 C 83 % 1021,6 hPa 0,0 l/m 0,0 km/h NO 1,3 C 3,9 C 0,0 km/h
29.03.2012 06:00 3,5 C 85 % 1021,4 hPa 0,0 l/m 0,0 km/h N-NO 1,2 C 3,5 C 0,0 km/h
29.03.2012 07:00 3,4 C 84 % 1021,7 hPa 0,0 l/m 0,0 km/h O-NO 1,0 C 3,4 C 0,0 km/h
29.03.2012 08:00 5,0 C 84 % 1022,1 hPa 0,0 l/m 0,0 km/h SO 2,5 C 5,0 C 0,0 km/h
29.03.2012 09:00 13,0 C 66 % 1021,8 hPa 0,0 l/m 7,8 km/h S-SO 6,8 C 12,1 C 4,3 km/h
29.03.2012 10:00 16,1 C 54 % 1021,7 hPa 0,0 l/m 0,0 km/h NW 6,8 C 16,1 C 0,0 km/h
29.03.2012 11:00 20,2 C 44 % 1021,4 hPa 0,0 l/m 7,8 km/h W-NW 7,6 C 19,6 C 4,3 km/h
29.03.2012 12:00 22,0 C 38 % 1021,0 hPa 0,0 l/m 0,0 km/h W 7,0 C 22,0 C 0,0 km/h
29.03.2012 13:00 22,4 C 31 % 1020,0 hPa 0,0 l/m 10,4 km/h NW 4,4 C 21,2 C 5,8 km/h
29.03.2012 14:00 22,8 C 22 % 1019,4 hPa 0,0 l/m 5,8 km/h NW -0,0 C 22,8 C 3,2 km/h
29.03.2012 15:00 24,0 C 27 % 1018,6 hPa 0,0 l/m 4,5 km/h N-NW 3,8 C 24,0 C 2,5 km/h
29.03.2012 16:00 21,8 C 28 % 1018,0 hPa 0,0 l/m 0,0 km/h N-NW 2,5 C 21,8 C 0,0 km/h
29.03.2012 17:00 19,7 C 30 % 1017,5 hPa 0,0 l/m 1,9 km/h N-NO 1,6 C 19,7 C 1,1 km/h
29.03.2012 18:00 17,9 C 33 % 1017,4 hPa 0,0 l/m 1,3 km/h N-NO 1,4 C 17,9 C 0,7 km/h
29.03.2012 19:00 16,7 C 38 % 1017,5 hPa 0,0 l/m 0,0 km/h N-NO 2,3 C 16,7 C 0,0 km/h
29.03.2012 20:00 15,3 C 43 % 1017,6 hPa 0,0 l/m 0,0 km/h N 2,8 C 15,3 C 0,0 km/h
29.03.2012 21:00 13,8 C 46 % 1018,3 hPa 0,0 l/m 5,2 km/h N-NO 2,4 C 13,8 C 2,9 km/h
29.03.2012 22:00 13,6 C 48 % 1018,5 hPa 0,0 l/m 1,9 km/h N 2,8 C 13,6 C 1,1 km/h
29.03.2012 23:00 13,4 C 50 % 1018,7 hPa 0,0 l/m 1,9 km/h N-NO 3,2 C 13,4 C 1,1 km/h
30.03.2012 00:00 12,6 C 51 % 1018,9 hPa 0,0 l/m 0,0 km/h N-NO 2,7 C 12,6 C 0,0 km/h
30.03.2012 01:00 11,7 C 54 % 1019,1 hPa 0,0 l/m 0,0 km/h N 2,7 C 11,7 C 0,0 km/h
30.03.2012 02:00 11,5 C 55 % 1019,0 hPa 0,0 l/m 0,0 km/h NO 2,8 C 11,5 C 0,0 km/h
30.03.2012 03:00 10,5 C 58 % 1018,7 hPa 0,0 l/m 0,0 km/h N-NO 2,6 C 10,5 C 0,0 km/h
30.03.2012 04:00 10,3 C 61 % 1018,4 hPa 0,0 l/m 0,0 km/h N 3,1 C 10,3 C 0,0 km/h
30.03.2012 05:00 9,4 C 64 % 1018,3 hPa 0,0 l/m 0,0 km/h O-NO 2,9 C 9,4 C 0,0 km/h
30.03.2012 06:00 9,3 C 65 % 1018,3 hPa 0,0 l/m 0,0 km/h O-SO 3,1 C 9,3 C 0,0 km/h
30.03.2012 07:00 9,2 C 67 % 1018,1 hPa 0,0 l/m 0,0 km/h N 3,4 C 9,2 C 0,0 km/h
30.03.2012 08:00 9,6 C 70 % 1018,7 hPa 0,0 l/m 0,0 km/h W 4,4 C 9,6 C 0,0 km/h
30.03.2012 09:00 10,3 C 69 % 1018,6 hPa 0,0 l/m 0,0 km/h W-NW 4,9 C 10,3 C 0,0 km/h
30.03.2012 10:00 10,8 C 67 % 1019,1 hPa 0,0 l/m 0,0 km/h SW 4,9 C 10,8 C 0,0 km/h
30.03.2012 11:00 11,9 C 64 % 1019,2 hPa 0,0 l/m 0,0 km/h N-NO 5,3 C 11,9 C 0,0 km/h
30.03.2012 12:00 13,9 C 58 % 1019,0 hPa 0,0 l/m 0,0 km/h N-NO 5,8 C 13,9 C 0,0 km/h
30.03.2012 13:00 15,6 C 54 % 1018,3 hPa 0,0 l/m 0,0 km/h W 6,3 C 15,6 C 0,0 km/h
30.03.2012 14:00 17,1 C 50 % 1017,8 hPa 0,0 l/m 0,0 km/h SW 6,6 C 17,1 C 0,0 km/h
30.03.2012 15:00 16,3 C 54 % 1017,2 hPa 0,0 l/m 20,7 km/h O-SO 7,0 C 11,3 C 11,5 km/h
30.03.2012 16:00 17,7 C 50 % 1016,8 hPa 0,0 l/m 16,2 km/h N-NO 7,1 C 14,1 C 9,0 km/h
30.03.2012 17:00 19,3 C 47 % 1016,3 hPa 0,0 l/m 2,6 km/h N 7,7 C 19,3 C 1,4 km/h
30.03.2012 18:00 16,1 C 50 % 1016,1 hPa 0,0 l/m 0,0 km/h N-NO 5,7 C 16,1 C 0,0 km/h
30.03.2012 19:00 16,2 C 50 % 1016,2 hPa 0,0 l/m 0,0 km/h N-NW 5,8 C 16,2 C 0,0 km/h
30.03.2012 20:00 12,1 C 62 % 1016,5 hPa 0,0 l/m 0,0 km/h O-SO 5,0 C 12,1 C 0,0 km/h
30.03.2012 21:00 9,4 C 70 % 1016,6 hPa 0,0 l/m 0,0 km/h SO 4,2 C 9,4 C 0,0 km/h
30.03.2012 22:00 9,4 C 74 % 1016,0 hPa 0,0 l/m 0,0 km/h O-SO 5,0 C 9,4 C 0,0 km/h
30.03.2012 23:00 9,9 C 75 % 1015,9 hPa 0,0 l/m 0,0 km/h O-NO 5,7 C 9,9 C 0,0 km/h
31.03.2012 00:00 8,9 C 77 % 1015,5 hPa 0,0 l/m 0,0 km/h O-NO 5,1 C 8,9 C 0,0 km/h
31.03.2012 01:00 7,9 C 80 % 1015,0 hPa 0,0 l/m 0,0 km/h O-NO 4,7 C 7,9 C 0,0 km/h
31.03.2012 02:00 8,3 C 81 % 1014,6 hPa 0,0 l/m 0,0 km/h S-SO 5,2 C 8,3 C 0,0 km/h
31.03.2012 03:00 7,9 C 82 % 1014,0 hPa 0,0 l/m 0,0 km/h SO 5,0 C 7,9 C 0,0 km/h
31.03.2012 04:00 7,3 C 82 % 1013,5 hPa 0,0 l/m 0,0 km/h SO 4,4 C 7,3 C 0,0 km/h
31.03.2012 05:00 6,3 C 83 % 1013,2 hPa 0,0 l/m 0,0 km/h NO 3,6 C 6,3 C 0,0 km/h
31.03.2012 06:00 6,8 C 83 % 1012,8 hPa 0,0 l/m 0,0 km/h O-NO 4,1 C 6,8 C 0,0 km/h
31.03.2012 07:00 6,7 C 83 % 1012,8 hPa 0,0 l/m 0,0 km/h O-NO 4,0 C 6,7 C 0,0 km/h
31.03.2012 08:00 8,3 C 83 % 1012,9 hPa 0,0 l/m 0,0 km/h W-SW 5,6 C 8,3 C 0,0 km/h
31.03.2012 09:00 13,3 C 71 % 1012,5 hPa 0,0 l/m 0,0 km/h NW 8,2 C 13,3 C 0,0 km/h
31.03.2012 10:00 15,8 C 58 % 1012,3 hPa 0,0 l/m 0,0 km/h N-NO 7,6 C 15,8 C 0,0 km/h
31.03.2012 11:00 17,9 C 52 % 1012,0 hPa 0,0 l/m 1,9 km/h W 7,9 C 17,9 C 1,1 km/h
31.03.2012 12:00 18,9 C 49 % 1011,3 hPa 0,0 l/m 3,9 km/h N-NO 7,9 C 18,9 C 2,2 km/h
31.03.2012 13:00 19,3 C 49 % 1010,5 hPa 0,0 l/m 8,4 km/h N-NW 8,3 C 18,5 C 4,7 km/h
31.03.2012 14:00 19,3 C 47 % 1010,1 hPa 0,0 l/m 0,0 km/h N-NO 7,7 C 19,3 C 0,0 km/h
31.03.2012 15:00 20,9 C 43 % 1009,7 hPa 0,0 l/m 9,7 km/h N 7,8 C 19,7 C 5,4 km/h
31.03.2012 16:00 21,9 C 41 % 1009,2 hPa 0,0 l/m 3,2 km/h N-NO 8,0 C 21,9 C 1,8 km/h
31.03.2012 17:00 21,3 C 37 % 1009,3 hPa 0,0 l/m 0,0 km/h N 6,0 C 21,3 C 0,0 km/h
31.03.2012 18:00 20,1 C 36 % 1009,4 hPa 0,0 l/m 2,6 km/h N-NO 4,6 C 20,1 C 1,4 km/h
31.03.2012 19:00 14,8 C 47 % 1009,9 hPa 0,0 l/m 0,0 km/h O-NO 3,6 C 14,8 C 0,0 km/h
31.03.2012 20:00 10,1 C 59 % 1010,2 hPa 0,0 l/m 0,0 km/h N 2,5 C 10,1 C 0,0 km/h
31.03.2012 21:00 10,1 C 65 % 1010,8 hPa 0,0 l/m 0,0 km/h N-NO 3,8 C 10,1 C 0,0 km/h
31.03.2012 22:00 10,9 C 65 % 1011,3 hPa 0,0 l/m 35,0 km/h N 4,6 C 1,0 C 19,4 km/h
31.03.2012 23:00 9,9 C 64 % 1011,8 hPa 0,0 l/m 13,6 km/h N 3,4 C 5,6 C 7,6 km/h
01.04.2012 00:00 8,8 C 64 % 1012,7 hPa 0,0 l/m 1,9 km/h N-NO 2,4 C 8,8 C 1,1 km/h
01.04.2012 01:00 8,1 C 63 % 1012,7 hPa 0,0 l/m 9,7 km/h N-NO 1,5 C 5,7 C 5,4 km/h
01.04.2012 02:00 7,2 C 61 % 1013,3 hPa 0,0 l/m 0,0 km/h N 0,2 C 7,2 C 0,0 km/h
01.04.2012 03:00 6,6 C 61 % 1013,4 hPa 0,0 l/m 6,5 km/h N -0,4 C 6,5 C 3,6 km/h
01.04.2012 04:00 5,6 C 62 % 1013,2 hPa 0,0 l/m 0,0 km/h N-NO -1,1 C 5,6 C 0,0 km/h
01.04.2012 05:00 3,9 C 63 % 1013,6 hPa 0,0 l/m 0,0 km/h N -2,5 C 3,9 C 0,0 km/h
01.04.2012 06:00 2,8 C 62 % 1013,6 hPa 0,0 l/m 0,0 km/h NO -3,7 C 2,8 C 0,0 km/h
01.04.2012 07:00 1,6 C 67 % 1013,9 hPa 0,0 l/m 0,0 km/h O-SO -3,9 C 1,6 C 0,0 km/h
01.04.2012 08:00 4,1 C 68 % 1014,4 hPa 0,0 l/m 0,0 km/h S-SO -1,3 C 4,1 C 0,0 km/h
01.04.2012 09:00 10,6 C 51 % 1014,4 hPa 0,0 l/m 5,2 km/h N 0,9 C 10,6 C 2,9 km/h
01.04.2012 10:00 12,7 C 45 % 1014,5 hPa 0,0 l/m 7,1 km/h NO 1,1 C 12,3 C 4,0 km/h
01.04.2012 11:00 16,8 C 37 % 1014,1 hPa 0,0 l/m 0,0 km/h O 2,0 C 16,8 C 0,0 km/h
01.04.2012 12:00 16,4 C 35 % 1014,0 hPa 0,0 l/m 0,0 km/h W 0,9 C 16,4 C 0,0 km/h
01.04.2012 13:00 16,6 C 32 % 1013,1 hPa 0,0 l/m 6,5 km/h N-NO -0,2 C 16,6 C 3,6 km/h
01.04.2012 14:00 16,6 C 28 % 1012,7 hPa 0,0 l/m 10,4 km/h NW -2,0 C 14,7 C 5,8 km/h
01.04.2012 15:00 17,8 C 32 % 1011,8 hPa 0,0 l/m 3,2 km/h N 0,9 C 17,8 C 1,8 km/h
01.04.2012 16:00 19,3 C 26 % 1011,3 hPa 0,0 l/m 1,3 km/h N-NO -0,7 C 19,3 C 0,7 km/h
01.04.2012 17:00 20,2 C 25 % 1011,2 hPa 0,0 l/m 9,1 km/h N-NO -0,4 C 19,2 C 5,0 km/h
01.04.2012 18:00 17,8 C 26 % 1010,9 hPa 0,0 l/m 22,7 km/h N-NO -1,9 C 12,8 C 12,6 km/h
01.04.2012 19:00 13,4 C 31 % 1011,1 hPa 0,0 l/m 3,9 km/h N -3,4 C 13,4 C 2,2 km/h
01.04.2012 20:00 7,6 C 42 % 1011,5 hPa 0,0 l/m 0,0 km/h O-SO -4,5 C 7,6 C 0,0 km/h
01.04.2012 21:00 4,5 C 52 % 1012,1 hPa 0,0 l/m 0,0 km/h SO -4,5 C 4,5 C 0,0 km/h
01.04.2012 22:00 3,4 C 59 % 1012,0 hPa 0,0 l/m 0,0 km/h N-NO -3,8 C 3,4 C 0,0 km/h
01.04.2012 23:00 2,4 C 63 % 1011,9 hPa 0,0 l/m 0,0 km/h NO -3,9 C 2,4 C 0,0 km/h
Min-Datum _ 26.03.12 26.03.12 31.03.12 - 26.03.12 - 01.04.12 31.03.12 26.03.12
_ Min-Zeit 07:30 16:30 16:30 - 00:30 - 21:30 22:30 00:30
Minimum _ 1,3 C 22 % 1009,2 hPa - 0,0 km/h - -4,5 C 1,0 C 0,0 km/h
Max-Datum _ 27.03.12 26.03.12 27.03.12 26.03.12 31.03.12 - 28.03.12 27.03.12 31.03.12
_ Max-Zeit 17:30 08:30 09:30 00:30 22:30 - 12:30 17:30 22:30
Maximum _ 28,4 C 85 % 1029,9 hPa 0,0 l/m 35,0 km/h
N
- 9,3 C 28,4 C 19,4 km/h
N
Durchschnitt _ 12,8 C 56 % 1020,6 hPa #0,0 l/m 2,3 km/h N-NO 3,2 C 12,5 C 1,3 km/h
www.sexauwetter.de